createdAt,value
2022-08-05T00:02:23.590Z,2.80
2022-08-05T00:04:55.183Z,2.53
2022-08-05T00:07:27.003Z,2.20
2022-08-05T00:10:11.114Z,2.53
2022-08-05T00:12:56.112Z,2.50
2022-08-05T00:15:55.978Z,2.58
2022-08-05T00:18:21.764Z,2.80
2022-08-05T00:20:50.424Z,2.78
2022-08-05T00:23:44.415Z,2.55
2022-08-05T00:26:06.141Z,2.78
2022-08-05T00:28:33.764Z,2.50
2022-08-05T00:31:04.101Z,2.53
2022-08-05T00:34:55.584Z,2.45
2022-08-05T00:37:11.419Z,2.85
2022-08-05T00:39:13.772Z,3.28
2022-08-05T00:41:51.578Z,2.65
2022-08-05T00:44:23.340Z,2.80
2022-08-05T00:47:02.217Z,2.72
2022-08-05T00:49:51.074Z,3.40
2022-08-05T00:52:28.350Z,2.78
2022-08-05T00:54:57.130Z,2.90
2022-08-05T00:57:38.276Z,3.15
2022-08-05T01:00:16.878Z,3.10
2022-08-05T01:02:44.742Z,2.85
2022-08-05T01:05:14.229Z,3.20
2022-08-05T01:08:39.225Z,3.10
2022-08-05T01:10:35.935Z,3.00
2022-08-05T01:13:13.042Z,2.95
2022-08-05T01:15:49.763Z,3.60
2022-08-05T01:18:22.794Z,2.70
2022-08-05T01:20:55.010Z,2.88
2022-08-05T01:23:34.704Z,3.17
2022-08-05T01:26:18.866Z,4.85
2022-08-05T01:28:51.457Z,2.85
2022-08-05T01:31:24.157Z,2.95
2022-08-05T01:33:55.507Z,3.22
2022-08-05T01:36:28.118Z,3.20
2022-08-05T01:38:56.794Z,2.85
2022-08-05T01:41:30.562Z,3.35
2022-08-05T01:44:02.104Z,4.82
2022-08-05T01:46:42.019Z,3.67
2022-08-05T01:49:23.594Z,3.53
2022-08-05T01:51:54.538Z,3.22
2022-08-05T01:54:27.175Z,3.53
2022-08-05T01:58:12.557Z,3.42
2022-08-05T01:59:47.975Z,3.28
2022-08-05T02:02:16.533Z,3.47
2022-08-05T02:04:49.590Z,3.40
2022-08-05T02:07:22.389Z,3.30
2022-08-05T02:09:50.894Z,3.20
2022-08-05T02:12:22.416Z,3.50
2022-08-05T02:15:03.121Z,3.60
2022-08-05T02:18:32.446Z,3.83
2022-08-05T02:20:22.739Z,3.35
2022-08-05T02:22:56.156Z,3.30
2022-08-05T02:25:26.228Z,3.25
2022-08-05T02:28:01.204Z,3.30
2022-08-05T02:30:32.087Z,2.55
2022-08-05T02:33:03.409Z,2.63
2022-08-05T02:35:38.548Z,2.45
2022-08-05T02:38:19.897Z,2.83
2022-08-05T02:40:47.996Z,3.28
2022-08-05T02:43:16.260Z,2.80
2022-08-05T02:45:52.032Z,2.65
2022-08-05T02:48:29.329Z,2.80
2022-08-05T02:50:58.743Z,3.00
2022-08-05T02:53:26.791Z,3.83
2022-08-05T02:56:00.111Z,2.97
2022-08-05T02:58:30.554Z,2.97
2022-08-05T03:01:01.811Z,2.58
2022-08-05T03:03:33.669Z,3.60
2022-08-05T03:06:55.671Z,2.35
2022-08-05T03:08:52.229Z,3.55
2022-08-05T03:11:54.625Z,3.35
2022-08-05T03:14:09.013Z,2.75
2022-08-05T03:16:42.238Z,2.50
2022-08-05T03:19:17.357Z,3.92
2022-08-05T03:21:58.053Z,3.58
2022-08-05T03:24:30.046Z,3.08
2022-08-05T03:26:58.590Z,3.83
2022-08-05T03:29:45.240Z,4.30
2022-08-05T03:32:15.679Z,3.72
2022-08-05T03:34:50.735Z,3.67
2022-08-05T03:37:20.050Z,3.30
2022-08-05T03:39:59.344Z,4.20
2022-08-05T03:42:32.127Z,4.07
2022-08-05T03:45:01.871Z,3.70
2022-08-05T03:47:49.578Z,4.13
2022-08-05T03:50:17.230Z,3.97
2022-08-05T03:55:49.743Z,3.53
2022-08-05T03:56:01.516Z,5.70
2022-08-05T03:58:31.910Z,5.40
2022-08-05T04:01:01.015Z,3.92
2022-08-05T04:03:31.792Z,4.50
2022-08-05T04:05:59.937Z,4.40
2022-08-05T04:08:36.059Z,4.28
2022-08-05T04:11:05.985Z,4.80
2022-08-05T04:13:49.899Z,4.65
2022-08-05T04:16:24.131Z,4.97
2022-08-05T04:18:54.953Z,5.82
2022-08-05T04:22:10.163Z,5.10
2022-08-05T04:24:19.654Z,4.93
2022-08-05T04:26:50.466Z,4.85
2022-08-05T04:29:18.147Z,4.63
2022-08-05T04:31:48.370Z,5.15
2022-08-05T04:34:33.379Z,4.65
2022-08-05T04:37:03.022Z,4.47
2022-08-05T04:39:31.209Z,6.18
2022-08-05T04:41:59.861Z,4.15
2022-08-05T04:44:29.276Z,4.57
2022-08-05T04:46:58.603Z,5.05
2022-08-05T04:49:38.709Z,4.50
2022-08-05T04:52:15.510Z,5.97
2022-08-05T04:54:43.300Z,5.30
2022-08-05T04:57:11.143Z,4.72
2022-08-05T04:59:40.829Z,4.93
2022-08-05T05:02:41.222Z,4.97
2022-08-05T05:05:02.163Z,5.20
2022-08-05T05:07:31.899Z,5.13
2022-08-05T05:10:04.125Z,4.50
2022-08-05T05:12:31.814Z,5.07
2022-08-05T05:14:59.498Z,5.78
2022-08-05T05:17:55.578Z,4.82
2022-08-05T05:20:28.125Z,4.47
2022-08-05T05:22:56.526Z,4.03
2022-08-05T05:25:40.384Z,6.10
2022-08-05T05:28:08.878Z,4.90
2022-08-05T05:30:37.233Z,4.65
2022-08-05T05:33:15.910Z,5.30
2022-08-05T05:35:46.870Z,4.75
2022-08-05T05:38:22.614Z,4.78
2022-08-05T05:40:55.258Z,5.10
2022-08-05T05:43:54.151Z,5.60
2022-08-05T05:46:17.452Z,4.35
2022-08-05T05:48:46.314Z,6.00
2022-08-05T05:51:20.812Z,5.38
2022-08-05T05:53:58.367Z,4.05
2022-08-05T05:56:33.185Z,5.03
2022-08-05T06:01:37.772Z,4.95
2022-08-05T06:04:06.158Z,4.75
2022-08-05T06:06:35.955Z,4.57
2022-08-05T06:09:04.219Z,4.72
2022-08-05T06:11:32.764Z,4.82
2022-08-05T06:14:01.001Z,4.03
2022-08-05T06:16:36.733Z,4.93
2022-08-05T06:21:36.992Z,4.78
2022-08-05T06:24:12.271Z,3.80
2022-08-05T06:26:51.871Z,3.92
2022-08-05T06:29:45.331Z,4.05
2022-08-05T06:32:28.739Z,4.03
2022-08-05T06:34:57.459Z,3.38
2022-08-05T06:37:56.818Z,3.72
2022-08-05T06:40:18.184Z,3.20
2022-08-05T06:42:51.613Z,4.35
2022-08-05T06:45:21.033Z,3.30
2022-08-05T06:48:37.220Z,3.15
2022-08-05T06:50:36.772Z,4.25
2022-08-05T06:53:11.837Z,3.33
2022-08-05T06:55:51.400Z,2.88
2022-08-05T06:58:35.257Z,3.55
2022-08-05T07:01:05.393Z,3.38
2022-08-05T07:03:33.513Z,3.60
2022-08-05T07:06:06.284Z,3.55
2022-08-05T07:08:42.671Z,3.92
2022-08-05T07:11:15.599Z,3.45
2022-08-05T07:14:01.337Z,4.20
2022-08-05T07:18:00.542Z,3.13
2022-08-05T07:22:28.730Z,3.20
2022-08-05T07:24:57.960Z,3.10
2022-08-05T07:27:27.525Z,2.67
2022-08-05T07:30:23.886Z,2.17
2022-08-05T07:32:58.240Z,3.15
2022-08-05T07:36:02.372Z,3.00
2022-08-05T07:38:32.305Z,3.60
2022-08-05T07:41:16.804Z,2.30
2022-08-05T07:43:51.450Z,2.72
2022-08-05T07:46:25.466Z,3.08
2022-08-05T07:49:02.385Z,2.72
2022-08-05T07:51:40.342Z,2.15
2022-08-05T07:54:16.528Z,2.60
2022-08-05T07:57:02.704Z,2.50
2022-08-05T07:59:40.538Z,2.70
2022-08-05T08:02:15.365Z,2.33
2022-08-05T08:04:45.507Z,2.55
2022-08-05T08:07:13.363Z,2.35
2022-08-05T08:09:41.005Z,2.40
2022-08-05T08:12:19.200Z,2.35
2022-08-05T08:15:02.113Z,2.20
2022-08-05T08:17:30.543Z,2.77
2022-08-05T08:20:21.381Z,1.90
2022-08-05T08:22:51.291Z,2.03
2022-08-05T08:25:26.558Z,1.60
2022-08-05T08:28:03.707Z,1.50
2022-08-05T08:30:39.208Z,2.38
2022-08-05T08:33:15.311Z,1.73
2022-08-05T08:35:53.077Z,1.60
2022-08-05T08:38:35.394Z,2.35
2022-08-05T08:41:05.792Z,1.90
2022-08-05T08:45:23.173Z,1.55
2022-08-05T08:46:25.017Z,1.58
2022-08-05T08:49:06.296Z,2.50
2022-08-05T08:52:03.049Z,3.28
2022-08-05T08:54:36.580Z,2.63
2022-08-05T08:57:06.034Z,3.33
2022-08-05T08:59:41.940Z,3.97
2022-08-05T09:02:18.949Z,2.38
2022-08-05T09:04:47.703Z,3.17
2022-08-05T09:07:40.077Z,3.22
2022-08-05T09:10:27.958Z,2.95
2022-08-05T09:13:04.548Z,4.35
2022-08-05T09:15:37.120Z,3.50
2022-08-05T09:18:09.249Z,4.03
2022-08-05T09:20:38.453Z,3.60
2022-08-05T09:23:09.153Z,4.13
2022-08-05T09:26:01.874Z,3.72
2022-08-05T09:28:32.513Z,2.75
2022-08-05T09:31:22.856Z,3.03
2022-08-05T09:33:54.773Z,3.20
2022-08-05T09:36:27.718Z,1.50
2022-08-05T09:39:02.374Z,1.42
2022-08-05T09:41:32.810Z,1.23
2022-08-05T09:44:01.086Z,1.40
2022-08-05T09:46:29.791Z,1.40
2022-08-05T09:49:06.811Z,1.45
2022-08-05T09:51:49.709Z,2.10
2022-08-05T09:54:28.786Z,1.90
2022-08-05T09:56:57.487Z,1.63
2022-08-05T09:59:27.745Z,1.83
2022-08-05T10:01:58.211Z,2.13
2022-08-05T10:04:35.496Z,1.75
2022-08-05T10:07:14.098Z,2.25
2022-08-05T10:10:04.300Z,2.10
2022-08-05T10:12:49.813Z,1.92
2022-08-05T10:15:20.353Z,1.90
2022-08-05T10:18:05.310Z,2.00
2022-08-05T10:20:35.610Z,1.85
2022-08-05T10:23:03.439Z,1.92
2022-08-05T10:25:31.114Z,1.25
2022-08-05T10:28:16.790Z,1.52
2022-08-05T10:32:48.340Z,1.08
2022-08-05T10:33:36.204Z,1.15
2022-08-05T10:36:05.763Z,1.10
2022-08-05T10:38:34.143Z,1.05
2022-08-05T10:41:05.827Z,1.10
2022-08-05T10:43:41.264Z,1.20
2022-08-05T10:46:10.439Z,0.98
2022-08-05T10:48:52.509Z,1.17
2022-08-05T10:51:28.553Z,1.10
2022-08-05T10:53:58.232Z,0.98
2022-08-05T10:56:27.076Z,1.60
2022-08-05T10:59:12.106Z,1.10
2022-08-05T11:01:55.496Z,1.40
2022-08-05T11:04:30.936Z,1.10
2022-08-05T11:07:08.272Z,1.08
2022-08-05T11:09:46.766Z,1.00
2022-08-05T11:12:33.215Z,1.00
2022-08-05T11:15:19.095Z,1.00
2022-08-05T11:17:59.992Z,1.30
2022-08-05T11:20:37.509Z,1.13
2022-08-05T11:23:25.657Z,1.20
2022-08-05T11:26:09.182Z,1.02
2022-08-05T11:28:43.369Z,1.15
2022-08-05T11:31:56.448Z,0.90
2022-08-05T11:34:09.622Z,0.82
2022-08-05T11:36:46.882Z,0.60
2022-08-05T11:39:39.208Z,0.88
2022-08-05T11:42:18.234Z,1.05
2022-08-05T11:44:54.166Z,0.80
2022-08-05T11:47:49.426Z,1.02
2022-08-05T11:50:10.665Z,1.30
2022-08-05T11:52:44.039Z,0.85
2022-08-05T11:55:16.657Z,0.95
2022-08-05T11:58:10.648Z,0.85
2022-08-05T12:00:38.362Z,1.10
2022-08-05T12:03:29.480Z,0.57
2022-08-05T12:06:00.577Z,0.93
2022-08-05T12:08:28.624Z,0.88
2022-08-05T12:11:00.410Z,0.80
2022-08-05T12:13:48.704Z,0.93
2022-08-05T12:16:19.424Z,1.00
2022-08-05T12:18:52.406Z,1.20
2022-08-05T12:21:21.222Z,0.93
2022-08-05T12:23:55.186Z,0.90
2022-08-05T12:26:23.210Z,1.45
2022-08-05T12:28:52.985Z,0.73
2022-08-05T12:31:23.153Z,0.65
2022-08-05T12:34:00.152Z,0.70
2022-08-05T12:36:29.312Z,0.50
2022-08-05T12:38:58.000Z,0.85
2022-08-05T12:41:34.509Z,0.70
2022-08-05T12:44:05.977Z,0.80
2022-08-05T12:46:40.554Z,0.52
2022-08-05T12:49:14.935Z,0.73
2022-08-05T12:52:12.038Z,0.60
2022-08-05T12:54:34.152Z,0.43
2022-08-05T12:57:02.792Z,0.80
2022-08-05T13:01:56.678Z,0.50
2022-08-05T13:02:22.359Z,0.60
2022-08-05T13:04:58.705Z,0.47
2022-08-05T13:10:20.121Z,0.80
2022-08-05T13:12:57.307Z,1.23
2022-08-05T13:15:42.131Z,0.70
2022-08-05T13:18:19.621Z,0.95
2022-08-05T13:20:48.971Z,0.77
2022-08-05T13:23:22.020Z,0.82
2022-08-05T13:25:52.622Z,0.68
2022-08-05T13:28:27.611Z,0.73
2022-08-05T13:30:57.244Z,0.60
2022-08-05T13:34:21.874Z,0.85
2022-08-05T13:36:14.469Z,1.83
2022-08-05T13:38:43.177Z,0.80
2022-08-05T13:41:11.113Z,0.80
2022-08-05T13:43:45.266Z,1.13
2022-08-05T13:46:44.043Z,0.90
2022-08-05T13:49:11.840Z,0.68
2022-08-05T13:51:41.431Z,0.82
2022-08-05T13:54:12.786Z,0.77
2022-08-05T13:56:45.229Z,0.98
2022-08-05T13:59:20.491Z,1.40
2022-08-05T14:01:57.938Z,1.13
2022-08-05T14:04:41.513Z,0.95
2022-08-05T14:07:25.376Z,0.80
2022-08-05T14:09:59.585Z,0.52
2022-08-05T14:12:32.517Z,0.70
2022-08-05T14:15:00.802Z,0.70
2022-08-05T14:17:35.358Z,0.80
2022-08-05T14:20:06.781Z,0.88
2022-08-05T14:22:35.841Z,0.82
2022-08-05T14:25:06.159Z,0.85
2022-08-05T14:27:48.428Z,0.80
2022-08-05T14:30:20.220Z,0.57
2022-08-05T14:32:50.085Z,0.70
2022-08-05T14:35:20.825Z,0.57
2022-08-05T14:37:55.473Z,1.00
2022-08-05T14:40:24.583Z,1.20
2022-08-05T14:42:52.417Z,0.68
2022-08-05T14:45:20.120Z,0.60
2022-08-05T14:48:02.993Z,0.80
2022-08-05T14:50:36.010Z,0.90
2022-08-05T14:53:08.232Z,1.25
2022-08-05T14:55:40.214Z,0.85
2022-08-05T14:58:11.418Z,1.20
2022-08-05T15:00:59.638Z,0.93
2022-08-05T15:03:34.180Z,1.05
2022-08-05T15:06:14.977Z,1.13
2022-08-05T15:08:59.431Z,0.60
2022-08-05T15:11:51.110Z,1.13
2022-08-05T15:14:20.072Z,1.17
2022-08-05T15:17:01.695Z,1.00
2022-08-05T15:19:33.014Z,0.82
2022-08-05T15:22:19.276Z,0.80
2022-08-05T15:24:49.164Z,1.13
2022-08-05T15:27:18.109Z,0.93
2022-08-05T15:29:47.733Z,0.80
2022-08-05T15:32:16.890Z,0.70
2022-08-05T15:34:46.007Z,0.80
2022-08-05T15:37:14.757Z,0.80
2022-08-05T15:41:00.503Z,0.90
2022-08-05T15:42:55.230Z,1.08
2022-08-05T15:45:23.124Z,1.00
2022-08-05T15:48:06.813Z,0.70
2022-08-05T15:50:36.002Z,0.80
2022-08-05T15:53:06.395Z,0.60
2022-08-05T15:56:03.141Z,0.70
2022-08-05T15:58:24.566Z,0.63
2022-08-05T16:01:11.527Z,0.60
2022-08-05T16:03:40.916Z,0.88
2022-08-05T16:06:11.362Z,0.70
2022-08-05T16:08:39.985Z,0.82
2022-08-05T16:11:08.167Z,0.80
2022-08-05T16:13:35.912Z,0.57
2022-08-05T16:16:03.838Z,0.98
2022-08-05T16:18:32.895Z,0.88
2022-08-05T16:21:04.295Z,1.02
2022-08-05T16:23:54.088Z,1.10
2022-08-05T16:26:26.459Z,1.00
2022-08-05T16:28:55.183Z,1.00
2022-08-05T16:31:22.964Z,0.98
2022-08-05T16:33:52.115Z,0.77
2022-08-05T16:36:23.896Z,0.73
2022-08-05T16:38:55.683Z,0.93
2022-08-05T16:42:14.007Z,0.88
2022-08-05T16:44:13.286Z,1.10
2022-08-05T16:46:41.420Z,1.40
2022-08-05T16:49:23.913Z,0.90
2022-08-05T16:51:54.976Z,1.00
2022-08-05T16:54:31.901Z,1.00
2022-08-05T16:57:00.814Z,0.95
2022-08-05T16:59:30.612Z,0.93
2022-08-05T17:01:59.503Z,0.90
2022-08-05T17:04:28.829Z,1.40
2022-08-05T17:07:00.397Z,1.17
2022-08-05T17:09:30.325Z,0.88
2022-08-05T17:12:06.526Z,1.30
2022-08-05T17:14:37.162Z,0.88
2022-08-05T17:17:05.831Z,1.45
2022-08-05T17:19:33.979Z,1.13
2022-08-05T17:22:01.721Z,0.90
2022-08-05T17:24:38.471Z,1.02
2022-08-05T17:27:10.064Z,0.90
2022-08-05T17:29:41.239Z,0.90
2022-08-05T17:32:11.516Z,1.20
2022-08-05T17:37:16.943Z,0.70
2022-08-05T17:40:01.031Z,1.05
2022-08-05T17:42:31.936Z,1.02
2022-08-05T17:45:00.249Z,1.27
2022-08-05T17:47:37.657Z,0.93
2022-08-05T17:50:10.954Z,0.88
2022-08-05T17:52:53.123Z,0.90
2022-08-05T17:55:27.336Z,0.82
2022-08-05T17:58:05.433Z,1.00
2022-08-05T18:00:35.496Z,0.85
2022-08-05T18:03:03.200Z,1.13
2022-08-05T18:05:35.523Z,0.93
2022-08-05T18:08:03.831Z,1.20
2022-08-05T18:10:33.679Z,1.17
2022-08-05T18:13:01.881Z,1.00
2022-08-05T18:15:36.136Z,0.98
2022-08-05T18:18:11.146Z,0.60
2022-08-05T18:20:39.381Z,1.20
2022-08-05T18:23:09.467Z,0.77
2022-08-05T18:25:44.954Z,1.33
2022-08-05T18:28:16.177Z,0.60
2022-08-05T18:30:44.612Z,1.30
2022-08-05T18:33:13.447Z,0.73
2022-08-05T18:36:01.254Z,1.00
2022-08-05T18:38:30.654Z,0.98
2022-08-05T18:41:57.641Z,0.82
2022-08-05T18:43:49.012Z,0.68
2022-08-05T18:46:19.940Z,0.63
2022-08-05T18:48:48.211Z,0.88
2022-08-05T18:52:04.883Z,0.85
2022-08-05T18:54:25.506Z,1.45
2022-08-05T18:56:54.519Z,0.85
2022-08-05T18:59:43.000Z,0.85
2022-08-05T19:02:11.370Z,0.80
2022-08-05T19:05:02.445Z,0.88
2022-08-05T19:07:46.003Z,0.60
2022-08-05T19:10:14.404Z,0.73
2022-08-05T19:12:43.673Z,1.00
2022-08-05T19:15:57.869Z,0.85
2022-08-05T19:18:10.247Z,0.70
2022-08-05T19:20:41.400Z,0.70
2022-08-05T19:23:22.601Z,0.93
2022-08-05T19:26:02.039Z,0.77
2022-08-05T19:28:33.089Z,0.90
2022-08-05T19:31:01.206Z,0.80
2022-08-05T19:33:36.126Z,0.57
2022-08-05T19:36:06.231Z,0.80
2022-08-05T19:38:35.750Z,1.00
2022-08-05T19:41:06.723Z,1.02
2022-08-05T19:44:06.729Z,0.95
2022-08-05T19:46:29.815Z,0.70
2022-08-05T19:49:02.869Z,0.98
2022-08-05T19:52:06.121Z,1.25
2022-08-05T19:54:29.623Z,0.98
2022-08-05T19:56:59.516Z,0.90
2022-08-05T20:00:00.619Z,0.57
2022-08-05T20:02:20.058Z,1.15
2022-08-05T20:04:48.479Z,1.00
2022-08-05T20:07:16.250Z,0.80
2022-08-05T20:10:11.519Z,0.93
2022-08-05T20:12:47.645Z,0.82
2022-08-05T20:15:23.364Z,1.25
2022-08-05T20:18:10.398Z,0.93
2022-08-05T20:20:55.830Z,0.60
2022-08-05T20:23:39.818Z,0.80
2022-08-05T20:26:15.277Z,1.58
2022-08-05T20:28:45.309Z,1.15
2022-08-05T20:31:16.654Z,1.42
2022-08-05T20:33:45.334Z,0.88
2022-08-05T20:36:14.249Z,0.80
2022-08-05T20:38:54.127Z,0.57
2022-08-05T20:41:27.352Z,1.30
2022-08-05T20:44:17.473Z,0.90
2022-08-05T20:46:48.807Z,0.75
2022-08-05T20:49:24.196Z,1.30
2022-08-05T20:51:54.105Z,1.05
2022-08-05T20:54:22.456Z,0.70
2022-08-05T20:56:52.603Z,1.10
2022-08-05T20:59:27.103Z,1.10
2022-08-05T21:02:09.614Z,1.00
2022-08-05T21:04:38.265Z,1.42
2022-08-05T21:07:08.920Z,0.75
2022-08-05T21:09:37.211Z,1.10
2022-08-05T21:12:19.469Z,0.90
2022-08-05T21:14:47.113Z,1.75
2022-08-05T21:17:16.647Z,0.70
2022-08-05T21:19:48.056Z,0.93
2022-08-05T21:22:21.873Z,1.13
2022-08-05T21:24:52.423Z,1.05
2022-08-05T21:27:20.569Z,0.90
2022-08-05T21:29:55.286Z,0.93
2022-08-05T21:32:26.622Z,0.80
2022-08-05T21:35:08.202Z,0.77
2022-08-05T21:37:41.059Z,0.73
2022-08-05T21:40:13.622Z,0.80
2022-08-05T21:42:44.543Z,1.10
2022-08-05T21:45:24.749Z,1.40
2022-08-05T21:48:06.297Z,1.27
2022-08-05T21:50:34.447Z,1.35
2022-08-05T21:53:16.408Z,1.45
2022-08-05T21:56:05.440Z,1.48
2022-08-05T21:58:32.481Z,1.15
2022-08-05T22:01:00.741Z,1.05
2022-08-05T22:03:48.249Z,1.40
2022-08-05T22:06:22.477Z,0.85
2022-08-05T22:08:51.683Z,1.38
2022-08-05T22:11:34.899Z,1.15
2022-08-05T22:14:19.803Z,1.10
2022-08-05T22:16:56.031Z,1.10
2022-08-05T22:20:01.317Z,1.40
2022-08-05T22:22:15.611Z,1.02
2022-08-05T22:25:01.457Z,1.63
2022-08-05T22:28:09.869Z,1.40
2022-08-05T22:30:32.237Z,1.83
2022-08-05T22:33:02.788Z,2.08
2022-08-05T22:35:48.007Z,1.20
2022-08-05T22:38:17.039Z,1.40
2022-08-05T22:40:49.447Z,1.27
2022-08-05T22:43:36.165Z,1.20
2022-08-05T22:46:13.343Z,1.42
2022-08-05T22:48:41.960Z,1.15
2022-08-05T22:51:15.747Z,1.48
2022-08-05T22:53:50.409Z,1.50
2022-08-05T22:56:30.184Z,1.52
2022-08-05T22:59:00.014Z,1.05
2022-08-05T23:02:04.611Z,1.75
2022-08-05T23:04:18.595Z,1.92
2022-08-05T23:06:48.378Z,1.48
2022-08-05T23:09:26.805Z,1.35
2022-08-05T23:12:06.524Z,1.20
2022-08-05T23:14:36.223Z,1.27
2022-08-05T23:17:24.159Z,2.35
2022-08-05T23:19:56.293Z,1.52
2022-08-05T23:22:27.739Z,2.63
2022-08-05T23:24:55.883Z,0.98
2022-08-05T23:27:24.148Z,1.17
2022-08-05T23:29:56.739Z,0.98
2022-08-05T23:32:24.801Z,2.10
2022-08-05T23:34:54.999Z,1.35
2022-08-05T23:37:22.597Z,1.48
2022-08-05T23:39:56.230Z,1.50
2022-08-05T23:42:29.696Z,2.08
2022-08-05T23:44:57.612Z,1.70
2022-08-05T23:47:25.657Z,1.73
2022-08-05T23:49:55.656Z,1.42
2022-08-05T23:52:36.049Z,1.67
2022-08-05T23:55:09.110Z,1.55
2022-08-05T23:57:37.281Z,1.42
